sensor_id;sensor_type;location;lat;lon;timestamp;P1;durP1;ratioP1;P2;durP2;ratioP2
22515;SDS011;11424;48.860;9.624;2023-11-19T00:02:51;80.4;;;89.1;;
22515;SDS011;11424;48.860;9.624;2023-11-19T00:07:51;80.3;;;89.4;;
22515;SDS011;11424;48.860;9.624;2023-11-19T00:12:51;76.3;;;84.4;;
22515;SDS011;11424;48.860;9.624;2023-11-19T00:17:51;69.6;;;76.9;;
22515;SDS011;11424;48.860;9.624;2023-11-19T00:22:51;57.4;;;63.5;;
22515;SDS011;11424;48.860;9.624;2023-11-19T00:27:51;57.6;;;63.6;;
22515;SDS011;11424;48.860;9.624;2023-11-19T00:32:51;60.1;;;66.6;;
22515;SDS011;11424;48.860;9.624;2023-11-19T00:37:51;75.2;;;83.2;;
22515;SDS011;11424;48.860;9.624;2023-11-19T00:42:51;72.8;;;80.7;;
22515;SDS011;11424;48.860;9.624;2023-11-19T00:47:51;68.2;;;75;;
22515;SDS011;11424;48.860;9.624;2023-11-19T00:52:51;70.7;;;78.1;;
22515;SDS011;11424;48.860;9.624;2023-11-19T00:57:51;73.7;;;81.5;;
22515;SDS011;11424;48.860;9.624;2023-11-19T01:02:51;62.1;;;68.4;;
22515;SDS011;11424;48.860;9.624;2023-11-19T01:07:51;56.9;;;62.5;;
22515;SDS011;11424;48.860;9.624;2023-11-19T01:12:51;53.9;;;58.8;;
22515;SDS011;11424;48.860;9.624;2023-11-19T01:17:51;70.6;;;77.8;;
22515;SDS011;11424;48.860;9.624;2023-11-19T01:22:51;63.6;;;69.7;;
22515;SDS011;11424;48.860;9.624;2023-11-19T01:27:51;66.1;;;72.7;;
22515;SDS011;11424;48.860;9.624;2023-11-19T01:32:51;67.1;;;74;;
22515;SDS011;11424;48.860;9.624;2023-11-19T01:37:51;68;;;74.9;;
22515;SDS011;11424;48.860;9.624;2023-11-19T01:42:51;62.8;;;69;;
22515;SDS011;11424;48.860;9.624;2023-11-19T01:47:51;57.2;;;62.8;;
22515;SDS011;11424;48.860;9.624;2023-11-19T01:52:52;54.4;;;59.2;;
22515;SDS011;11424;48.860;9.624;2023-11-19T01:57:52;65.3;;;71.8;;
22515;SDS011;11424;48.860;9.624;2023-11-19T02:02:51;66.7;;;73.4;;
22515;SDS011;11424;48.860;9.624;2023-11-19T02:07:51;66.8;;;73.6;;
22515;SDS011;11424;48.860;9.624;2023-11-19T02:12:51;68.1;;;75.2;;
22515;SDS011;11424;48.860;9.624;2023-11-19T02:17:51;64.7;;;71.2;;
22515;SDS011;11424;48.860;9.624;2023-11-19T02:22:51;62.9;;;69.2;;
22515;SDS011;11424;48.860;9.624;2023-11-19T02:27:52;66.5;;;73.4;;
22515;SDS011;11424;48.860;9.624;2023-11-19T02:32:52;56.7;;;61.9;;
22515;SDS011;11424;48.860;9.624;2023-11-19T02:37:51;61.3;;;67.4;;
22515;SDS011;11424;48.860;9.624;2023-11-19T02:42:51;63.1;;;69.4;;
22515;SDS011;11424;48.860;9.624;2023-11-19T02:47:51;60.6;;;66.6;;
22515;SDS011;11424;48.860;9.624;2023-11-19T02:52:52;61.2;;;67.4;;
22515;SDS011;11424;48.860;9.624;2023-11-19T02:57:51;61.4;;;67.5;;
22515;SDS011;11424;48.860;9.624;2023-11-19T03:02:51;62.6;;;69;;
22515;SDS011;11424;48.860;9.624;2023-11-19T03:07:51;62.1;;;68.5;;
22515;SDS011;11424;48.860;9.624;2023-11-19T03:12:51;60.9;;;67.3;;
22515;SDS011;11424;48.860;9.624;2023-11-19T03:17:51;62;;;68.5;;
22515;SDS011;11424;48.860;9.624;2023-11-19T03:22:51;61.1;;;67.4;;
22515;SDS011;11424;48.860;9.624;2023-11-19T03:27:51;59.5;;;65.6;;
22515;SDS011;11424;48.860;9.624;2023-11-19T03:32:51;60.9;;;67.3;;
22515;SDS011;11424;48.860;9.624;2023-11-19T03:37:51;59.3;;;65.3;;
22515;SDS011;11424;48.860;9.624;2023-11-19T03:42:51;58.5;;;64.3;;
22515;SDS011;11424;48.860;9.624;2023-11-19T03:47:51;59.4;;;65.4;;
22515;SDS011;11424;48.860;9.624;2023-11-19T03:52:51;59.1;;;65;;
22515;SDS011;11424;48.860;9.624;2023-11-19T03:57:51;59;;;65.1;;
22515;SDS011;11424;48.860;9.624;2023-11-19T04:02:51;53.3;;;56.8;;
22515;SDS011;11424;48.860;9.624;2023-11-19T04:07:51;54.4;;;58.3;;
22515;SDS011;11424;48.860;9.624;2023-11-19T04:12:51;53.2;;;57;;
22515;SDS011;11424;48.860;9.624;2023-11-19T04:17:51;56.9;;;62;;
22515;SDS011;11424;48.860;9.624;2023-11-19T04:22:51;58;;;63.8;;
22515;SDS011;11424;48.860;9.624;2023-11-19T04:27:51;59.1;;;65.1;;
22515;SDS011;11424;48.860;9.624;2023-11-19T04:32:51;58.6;;;64.5;;
22515;SDS011;11424;48.860;9.624;2023-11-19T04:37:51;57.4;;;63.2;;
22515;SDS011;11424;48.860;9.624;2023-11-19T04:42:51;57.1;;;62.2;;
22515;SDS011;11424;48.860;9.624;2023-11-19T04:47:51;52;;;55.6;;
22515;SDS011;11424;48.860;9.624;2023-11-19T04:52:51;49.9;;;53.3;;
22515;SDS011;11424;48.860;9.624;2023-11-19T04:57:53;52;;;56.1;;
22515;SDS011;11424;48.860;9.624;2023-11-19T05:02:51;56.1;;;61.7;;
22515;SDS011;11424;48.860;9.624;2023-11-19T05:07:51;58.1;;;64;;
22515;SDS011;11424;48.860;9.624;2023-11-19T05:12:51;56.1;;;61.7;;
22515;SDS011;11424;48.860;9.624;2023-11-19T05:17:51;57.2;;;62.9;;
22515;SDS011;11424;48.860;9.624;2023-11-19T05:22:51;55.9;;;61.5;;
22515;SDS011;11424;48.860;9.624;2023-11-19T05:27:51;51.4;;;54.9;;
22515;SDS011;11424;48.860;9.624;2023-11-19T05:32:51;52;;;55.7;;
22515;SDS011;11424;48.860;9.624;2023-11-19T05:37:51;51.2;;;54.9;;
22515;SDS011;11424;48.860;9.624;2023-11-19T05:42:52;56.6;;;62.1;;
22515;SDS011;11424;48.860;9.624;2023-11-19T05:47:51;57.3;;;63;;
22515;SDS011;11424;48.860;9.624;2023-11-19T05:52:51;56.1;;;61.5;;
22515;SDS011;11424;48.860;9.624;2023-11-19T05:57:51;54.3;;;59.4;;
22515;SDS011;11424;48.860;9.624;2023-11-19T06:02:51;56.2;;;61.6;;
22515;SDS011;11424;48.860;9.624;2023-11-19T06:07:51;55.8;;;61.3;;
22515;SDS011;11424;48.860;9.624;2023-11-19T06:12:51;50.3;;;53.6;;
22515;SDS011;11424;48.860;9.624;2023-11-19T06:17:52;50.7;;;54;;
22515;SDS011;11424;48.860;9.624;2023-11-19T06:22:52;55.9;;;61.4;;
22515;SDS011;11424;48.860;9.624;2023-11-19T06:27:52;56.5;;;62.1;;
22515;SDS011;11424;48.860;9.624;2023-11-19T06:32:52;54.9;;;60.2;;
22515;SDS011;11424;48.860;9.624;2023-11-19T06:37:52;54.8;;;60.2;;
22515;SDS011;11424;48.860;9.624;2023-11-19T06:42:52;55.5;;;61;;
22515;SDS011;11424;48.860;9.624;2023-11-19T06:47:52;56.1;;;61.6;;
22515;SDS011;11424;48.860;9.624;2023-11-19T06:52:52;52.7;;;57.4;;
22515;SDS011;11424;48.860;9.624;2023-11-19T06:57:52;49.2;;;52.2;;
22515;SDS011;11424;48.860;9.624;2023-11-19T07:02:52;57.3;;;63;;
22515;SDS011;11424;48.860;9.624;2023-11-19T07:07:52;55.6;;;60.9;;
22515;SDS011;11424;48.860;9.624;2023-11-19T07:12:52;54.9;;;60.2;;
22515;SDS011;11424;48.860;9.624;2023-11-19T07:17:52;56.5;;;62.2;;
22515;SDS011;11424;48.860;9.624;2023-11-19T07:22:52;56.2;;;61.7;;
22515;SDS011;11424;48.860;9.624;2023-11-19T07:27:52;55.4;;;60.7;;
22515;SDS011;11424;48.860;9.624;2023-11-19T07:32:52;52.4;;;57.3;;
22515;SDS011;11424;48.860;9.624;2023-11-19T07:37:52;53;;;57.9;;
22515;SDS011;11424;48.860;9.624;2023-11-19T07:42:52;49.5;;;52.8;;
22515;SDS011;11424;48.860;9.624;2023-11-19T07:47:52;48.7;;;51.9;;
22515;SDS011;11424;48.860;9.624;2023-11-19T07:52:52;47.6;;;50.5;;
22515;SDS011;11424;48.860;9.624;2023-11-19T07:57:52;48.8;;;52.1;;
22515;SDS011;11424;48.860;9.624;2023-11-19T08:02:52;54.4;;;59.7;;
22515;SDS011;11424;48.860;9.624;2023-11-19T08:07:52;53.2;;;58.3;;
22515;SDS011;11424;48.860;9.624;2023-11-19T08:12:52;51.9;;;56.5;;
22515;SDS011;11424;48.860;9.624;2023-11-19T08:17:52;54;;;59.1;;
22515;SDS011;11424;48.860;9.624;2023-11-19T08:22:52;53.1;;;57.7;;
22515;SDS011;11424;48.860;9.624;2023-11-19T08:27:52;48.6;;;51.8;;
22515;SDS011;11424;48.860;9.624;2023-11-19T08:32:52;47.8;;;51;;
22515;SDS011;11424;48.860;9.624;2023-11-19T08:37:52;48.1;;;51.1;;
22515;SDS011;11424;48.860;9.624;2023-11-19T08:42:52;54.2;;;59.5;;
22515;SDS011;11424;48.860;9.624;2023-11-19T08:47:52;51.7;;;56.2;;
22515;SDS011;11424;48.860;9.624;2023-11-19T08:52:52;53;;;58.1;;
22515;SDS011;11424;48.860;9.624;2023-11-19T08:57:52;50.8;;;55.3;;
22515;SDS011;11424;48.860;9.624;2023-11-19T09:02:52;54.4;;;59.6;;
22515;SDS011;11424;48.860;9.624;2023-11-19T09:07:52;47.2;;;50.1;;
22515;SDS011;11424;48.860;9.624;2023-11-19T09:12:52;51.6;;;55.5;;
22515;SDS011;11424;48.860;9.624;2023-11-19T09:17:52;50.6;;;54.4;;
22515;SDS011;11424;48.860;9.624;2023-11-19T09:22:52;60.1;;;66.3;;
22515;SDS011;11424;48.860;9.624;2023-11-19T09:27:52;57.3;;;62.9;;
22515;SDS011;11424;48.860;9.624;2023-11-19T09:32:52;61.5;;;68;;
22515;SDS011;11424;48.860;9.624;2023-11-19T09:37:52;51.5;;;56.2;;
22515;SDS011;11424;48.860;9.624;2023-11-19T09:42:52;59.1;;;65.2;;
22515;SDS011;11424;48.860;9.624;2023-11-19T09:47:52;57.8;;;63.5;;
22515;SDS011;11424;48.860;9.624;2023-11-19T09:52:52;52;;;55.5;;
22515;SDS011;11424;48.860;9.624;2023-11-19T09:57:52;49.9;;;53.2;;
22515;SDS011;11424;48.860;9.624;2023-11-19T10:02:52;57.8;;;63.7;;
22515;SDS011;11424;48.860;9.624;2023-11-19T10:07:52;51.2;;;55.8;;
22515;SDS011;11424;48.860;9.624;2023-11-19T10:12:52;57.9;;;63.7;;
22515;SDS011;11424;48.860;9.624;2023-11-19T10:17:52;52.3;;;57.2;;
22515;SDS011;11424;48.860;9.624;2023-11-19T10:22:52;55.6;;;61;;
22515;SDS011;11424;48.860;9.624;2023-11-19T10:27:52;56.1;;;61.5;;
22515;SDS011;11424;48.860;9.624;2023-11-19T10:33:08;57.8;;;63.7;;
22515;SDS011;11424;48.860;9.624;2023-11-19T10:37:52;49.2;;;52.2;;
22515;SDS011;11424;48.860;9.624;2023-11-19T10:43:01;54.6;;;59.9;;
22515;SDS011;11424;48.860;9.624;2023-11-19T10:47:52;54.9;;;60.1;;
22515;SDS011;11424;48.860;9.624;2023-11-19T10:52:52;53.4;;;58.5;;
22515;SDS011;11424;48.860;9.624;2023-11-19T10:57:52;55.6;;;61;;
22515;SDS011;11424;48.860;9.624;2023-11-19T11:02:54;56.4;;;61.8;;
22515;SDS011;11424;48.860;9.624;2023-11-19T11:07:52;56.6;;;61.9;;
22515;SDS011;11424;48.860;9.624;2023-11-19T11:12:52;56.1;;;61.3;;
22515;SDS011;11424;48.860;9.624;2023-11-19T11:17:52;51.9;;;56.6;;
22515;SDS011;11424;48.860;9.624;2023-11-19T11:22:55;52.7;;;57.4;;
22515;SDS011;11424;48.860;9.624;2023-11-19T11:27:56;54.1;;;59;;
22515;SDS011;11424;48.860;9.624;2023-11-19T11:32:54;54.9;;;60;;
22515;SDS011;11424;48.860;9.624;2023-11-19T11:37:53;52.9;;;57.7;;
22515;SDS011;11424;48.860;9.624;2023-11-19T11:42:52;52.9;;;57.6;;
22515;SDS011;11424;48.860;9.624;2023-11-19T11:48:23;54;;;58.9;;
22515;SDS011;11424;48.860;9.624;2023-11-19T11:53:24;52.4;;;57;;
22515;SDS011;11424;48.860;9.624;2023-11-19T11:57:52;55.1;;;60.4;;
22515;SDS011;11424;48.860;9.624;2023-11-19T12:02:52;53.2;;;57.6;;
22515;SDS011;11424;48.860;9.624;2023-11-19T12:07:54;49.4;;;52.6;;
22515;SDS011;11424;48.860;9.624;2023-11-19T12:12:52;49.3;;;52.4;;
22515;SDS011;11424;48.860;9.624;2023-11-19T12:17:52;47.5;;;50.6;;
22515;SDS011;11424;48.860;9.624;2023-11-19T12:22:52;54.5;;;59.6;;
22515;SDS011;11424;48.860;9.624;2023-11-19T12:27:52;59.3;;;65.2;;
22515;SDS011;11424;48.860;9.624;2023-11-19T12:32:52;52.6;;;57.4;;
22515;SDS011;11424;48.860;9.624;2023-11-19T12:37:52;50.5;;;54.8;;
22515;SDS011;11424;48.860;9.624;2023-11-19T12:42:52;53.5;;;58.5;;
22515;SDS011;11424;48.860;9.624;2023-11-19T12:48:03;47.5;;;50.2;;
22515;SDS011;11424;48.860;9.624;2023-11-19T12:52:55;50.5;;;54.7;;
22515;SDS011;11424;48.860;9.624;2023-11-19T12:57:52;53;;;57;;
22515;SDS011;11424;48.860;9.624;2023-11-19T13:02:53;57.9;;;63.3;;
22515;SDS011;11424;48.860;9.624;2023-11-19T13:07:57;57.1;;;62.2;;
22515;SDS011;11424;48.860;9.624;2023-11-19T13:13:08;57.5;;;62.9;;
22515;SDS011;11424;48.860;9.624;2023-11-19T13:17:52;60.8;;;66.8;;
22515;SDS011;11424;48.860;9.624;2023-11-19T13:22:54;63.2;;;69.4;;
22515;SDS011;11424;48.860;9.624;2023-11-19T13:27:52;59.7;;;65.4;;
22515;SDS011;11424;48.860;9.624;2023-11-19T13:32:52;53.2;;;57.1;;
22515;SDS011;11424;48.860;9.624;2023-11-19T13:37:52;61.7;;;66.2;;
22515;SDS011;11424;48.860;9.624;2023-11-19T13:42:52;61.6;;;67.4;;
22515;SDS011;11424;48.860;9.624;2023-11-19T13:47:52;64.8;;;71.3;;
22515;SDS011;11424;48.860;9.624;2023-11-19T13:52:52;62.3;;;68.4;;
22515;SDS011;11424;48.860;9.624;2023-11-19T13:57:52;58.3;;;63.7;;
22515;SDS011;11424;48.860;9.624;2023-11-19T14:02:52;67.3;;;74.1;;
22515;SDS011;11424;48.860;9.624;2023-11-19T14:07:52;63.4;;;69.6;;
22515;SDS011;11424;48.860;9.624;2023-11-19T14:12:52;31.5;;;34.6;;
22515;SDS011;11424;48.860;9.624;2023-11-19T14:17:52;53.8;;;57.9;;
22515;SDS011;11424;48.860;9.624;2023-11-19T14:22:52;56.2;;;61.3;;
22515;SDS011;11424;48.860;9.624;2023-11-19T14:27:52;58.6;;;64.2;;
22515;SDS011;11424;48.860;9.624;2023-11-19T14:32:52;61;;;66.9;;
22515;SDS011;11424;48.860;9.624;2023-11-19T14:37:52;33.4;;;36.3;;
22515;SDS011;11424;48.860;9.624;2023-11-19T14:42:52;37.2;;;40.9;;
22515;SDS011;11424;48.860;9.624;2023-11-19T14:47:52;31.7;;;34.7;;
22515;SDS011;11424;48.860;9.624;2023-11-19T14:52:52;34.7;;;38.1;;
22515;SDS011;11424;48.860;9.624;2023-11-19T14:57:52;33.5;;;36.9;;
22515;SDS011;11424;48.860;9.624;2023-11-19T15:02:52;58.1;;;63;;
22515;SDS011;11424;48.860;9.624;2023-11-19T15:07:52;56.6;;;61.5;;
22515;SDS011;11424;48.860;9.624;2023-11-19T15:12:52;55.3;;;59.7;;
22515;SDS011;11424;48.860;9.624;2023-11-19T15:17:52;53.9;;;58.1;;
22515;SDS011;11424;48.860;9.624;2023-11-19T15:22:52;63.6;;;69.8;;
22515;SDS011;11424;48.860;9.624;2023-11-19T15:27:52;59.2;;;64.8;;
22515;SDS011;11424;48.860;9.624;2023-11-19T15:32:52;59.9;;;65.8;;
22515;SDS011;11424;48.860;9.624;2023-11-19T15:37:52;37.5;;;40.9;;
22515;SDS011;11424;48.860;9.624;2023-11-19T15:42:52;28.6;;;31.1;;
22515;SDS011;11424;48.860;9.624;2023-11-19T15:47:52;30;;;32.9;;
22515;SDS011;11424;48.860;9.624;2023-11-19T15:52:52;29.5;;;32.4;;
22515;SDS011;11424;48.860;9.624;2023-11-19T15:57:52;30.3;;;33.2;;
22515;SDS011;11424;48.860;9.624;2023-11-19T16:02:52;58.4;;;63.7;;
22515;SDS011;11424;48.860;9.624;2023-11-19T16:07:52;61.2;;;67.4;;
22515;SDS011;11424;48.860;9.624;2023-11-19T16:12:52;58.4;;;64.1;;
22515;SDS011;11424;48.860;9.624;2023-11-19T16:17:52;59.2;;;64.9;;
22515;SDS011;11424;48.860;9.624;2023-11-19T16:22:52;25.1;;;27.2;;
22515;SDS011;11424;48.860;9.624;2023-11-19T16:27:52;52.6;;;56.7;;
22515;SDS011;11424;48.860;9.624;2023-11-19T16:32:53;53.2;;;57.2;;
22515;SDS011;11424;48.860;9.624;2023-11-19T16:37:52;51.8;;;55.5;;
22515;SDS011;11424;48.860;9.624;2023-11-19T16:42:52;55.3;;;60.6;;
22515;SDS011;11424;48.860;9.624;2023-11-19T16:47:52;54;;;58.9;;
22515;SDS011;11424;48.860;9.624;2023-11-19T16:52:52;55.8;;;61.1;;
22515;SDS011;11424;48.860;9.624;2023-11-19T16:57:52;56.4;;;61.8;;
22515;SDS011;11424;48.860;9.624;2023-11-19T17:02:52;58.5;;;64.3;;
22515;SDS011;11424;48.860;9.624;2023-11-19T17:07:52;24.8;;;26.9;;
22515;SDS011;11424;48.860;9.624;2023-11-19T17:12:52;52;;;55.6;;
22515;SDS011;11424;48.860;9.624;2023-11-19T17:17:52;50.8;;;54.3;;
22515;SDS011;11424;48.860;9.624;2023-11-19T17:22:52;53.9;;;58.7;;
22515;SDS011;11424;48.860;9.624;2023-11-19T17:27:52;60.8;;;67.1;;
22515;SDS011;11424;48.860;9.624;2023-11-19T17:32:52;29.5;;;31.7;;
22515;SDS011;11424;48.860;9.624;2023-11-19T17:37:52;50.6;;;54.3;;
22515;SDS011;11424;48.860;9.624;2023-11-19T17:42:52;59.3;;;65.1;;
22515;SDS011;11424;48.860;9.624;2023-11-19T17:47:52;56.9;;;62.5;;
22515;SDS011;11424;48.860;9.624;2023-11-19T17:52:52;56.9;;;62.3;;
22515;SDS011;11424;48.860;9.624;2023-11-19T17:57:52;50.2;;;53.7;;
22515;SDS011;11424;48.860;9.624;2023-11-19T18:02:52;55.3;;;60.5;;
22515;SDS011;11424;48.860;9.624;2023-11-19T18:07:52;54.5;;;59.4;;
22515;SDS011;11424;48.860;9.624;2023-11-19T18:12:52;31.4;;;34.1;;
22515;SDS011;11424;48.860;9.624;2023-11-19T18:17:52;33.7;;;36.6;;
22515;SDS011;11424;48.860;9.624;2023-11-19T18:22:52;31;;;33.9;;
22515;SDS011;11424;48.860;9.624;2023-11-19T18:27:52;27.6;;;29.9;;
22515;SDS011;11424;48.860;9.624;2023-11-19T18:32:52;29.3;;;31.9;;
22515;SDS011;11424;48.860;9.624;2023-11-19T18:37:52;26.3;;;28.6;;
22515;SDS011;11424;48.860;9.624;2023-11-19T18:42:52;31.5;;;34.3;;
22515;SDS011;11424;48.860;9.624;2023-11-19T18:47:52;25.3;;;27.5;;
22515;SDS011;11424;48.860;9.624;2023-11-19T18:52:52;30.1;;;33;;
22515;SDS011;11424;48.860;9.624;2023-11-19T18:57:52;30.4;;;33.3;;
22515;SDS011;11424;48.860;9.624;2023-11-19T19:02:52;59.6;;;65.5;;
22515;SDS011;11424;48.860;9.624;2023-11-19T19:07:52;58.4;;;63.8;;
22515;SDS011;11424;48.860;9.624;2023-11-19T19:12:52;57.7;;;63.4;;
22515;SDS011;11424;48.860;9.624;2023-11-19T19:17:52;54.8;;;60;;
22515;SDS011;11424;48.860;9.624;2023-11-19T19:22:52;55.1;;;59.9;;
22515;SDS011;11424;48.860;9.624;2023-11-19T19:27:52;51.7;;;55.3;;
22515;SDS011;11424;48.860;9.624;2023-11-19T19:32:52;52.2;;;55.9;;
22515;SDS011;11424;48.860;9.624;2023-11-19T19:37:52;51.5;;;55.3;;
22515;SDS011;11424;48.860;9.624;2023-11-19T19:42:52;59.2;;;65.4;;
22515;SDS011;11424;48.860;9.624;2023-11-19T19:47:52;55.5;;;60.7;;
22515;SDS011;11424;48.860;9.624;2023-11-19T19:52:52;54.6;;;59.7;;
22515;SDS011;11424;48.860;9.624;2023-11-19T19:57:53;56.3;;;61.8;;
22515;SDS011;11424;48.860;9.624;2023-11-19T20:02:52;26.3;;;28.7;;
22515;SDS011;11424;48.860;9.624;2023-11-19T20:07:52;23.4;;;25.6;;
22515;SDS011;11424;48.860;9.624;2023-11-19T20:12:52;53.3;;;57.3;;
22515;SDS011;11424;48.860;9.624;2023-11-19T20:17:52;51.3;;;55.1;;
22515;SDS011;11424;48.860;9.624;2023-11-19T20:22:52;25.4;;;27.5;;
22515;SDS011;11424;48.860;9.624;2023-11-19T20:27:52;51.7;;;55.5;;
22515;SDS011;11424;48.860;9.624;2023-11-19T20:32:52;51.7;;;55.6;;
22515;SDS011;11424;48.860;9.624;2023-11-19T20:37:52;50.4;;;53.9;;
22515;SDS011;11424;48.860;9.624;2023-11-19T20:42:52;54.6;;;59.9;;
22515;SDS011;11424;48.860;9.624;2023-11-19T20:47:53;58.6;;;64.4;;
22515;SDS011;11424;48.860;9.624;2023-11-19T20:52:52;51.4;;;55.2;;
22515;SDS011;11424;48.860;9.624;2023-11-19T20:57:52;50.3;;;54;;
22515;SDS011;11424;48.860;9.624;2023-11-19T21:02:52;60.6;;;67.1;;
22515;SDS011;11424;48.860;9.624;2023-11-19T21:07:52;56.6;;;62.4;;
22515;SDS011;11424;48.860;9.624;2023-11-19T21:12:52;57.2;;;63;;
22515;SDS011;11424;48.860;9.624;2023-11-19T21:17:53;58;;;63.8;;
22515;SDS011;11424;48.860;9.624;2023-11-19T21:22:53;56.9;;;62.6;;
22515;SDS011;11424;48.860;9.624;2023-11-19T21:27:53;56.2;;;61.6;;
22515;SDS011;11424;48.860;9.624;2023-11-19T21:32:53;21.8;;;23.8;;
22515;SDS011;11424;48.860;9.624;2023-11-19T21:37:53;23.5;;;25.8;;
22515;SDS011;11424;48.860;9.624;2023-11-19T21:42:53;24.6;;;27.1;;
22515;SDS011;11424;48.860;9.624;2023-11-19T21:47:53;25.3;;;28.1;;
22515;SDS011;11424;48.860;9.624;2023-11-19T21:52:53;30.9;;;34.5;;
22515;SDS011;11424;48.860;9.624;2023-11-19T21:57:53;24.9;;;27.5;;
22515;SDS011;11424;48.860;9.624;2023-11-19T22:02:53;26.1;;;28.9;;
22515;SDS011;11424;48.860;9.624;2023-11-19T22:07:53;56.7;;;62.3;;
22515;SDS011;11424;48.860;9.624;2023-11-19T22:12:53;54.8;;;59.5;;
22515;SDS011;11424;48.860;9.624;2023-11-19T22:17:53;53.6;;;58;;
22515;SDS011;11424;48.860;9.624;2023-11-19T22:22:53;60.1;;;66.3;;
22515;SDS011;11424;48.860;9.624;2023-11-19T22:27:53;57.8;;;63.4;;
22515;SDS011;11424;48.860;9.624;2023-11-19T22:32:53;60;;;66.2;;
22515;SDS011;11424;48.860;9.624;2023-11-19T22:37:53;59.6;;;65.7;;
22515;SDS011;11424;48.860;9.624;2023-11-19T22:42:53;58.6;;;64.5;;
22515;SDS011;11424;48.860;9.624;2023-11-19T22:47:53;57.3;;;63;;
22515;SDS011;11424;48.860;9.624;2023-11-19T22:52:53;56.6;;;62.1;;
22515;SDS011;11424;48.860;9.624;2023-11-19T22:57:53;57.6;;;63.3;;
22515;SDS011;11424;48.860;9.624;2023-11-19T23:02:53;29.8;;;32.8;;
22515;SDS011;11424;48.860;9.624;2023-11-19T23:07:53;24.4;;;26.9;;
22515;SDS011;11424;48.860;9.624;2023-11-19T23:12:53;30.3;;;33.7;;
22515;SDS011;11424;48.860;9.624;2023-11-19T23:17:53;26.8;;;29.8;;
22515;SDS011;11424;48.860;9.624;2023-11-19T23:22:53;28;;;31.6;;
22515;SDS011;11424;48.860;9.624;2023-11-19T23:27:53;27.1;;;32.6;;
22515;SDS011;11424;48.860;9.624;2023-11-19T23:32:53;57.5;;;63.2;;
22515;SDS011;11424;48.860;9.624;2023-11-19T23:37:53;55.4;;;61;;
22515;SDS011;11424;48.860;9.624;2023-11-19T23:42:53;63.4;;;70.3;;
22515;SDS011;11424;48.860;9.624;2023-11-19T23:47:53;54.5;;;59.1;;
22515;SDS011;11424;48.860;9.624;2023-11-19T23:52:53;54;;;58.6;;
22515;SDS011;11424;48.860;9.624;2023-11-19T23:57:53;53.4;;;58;;
